Time;durP1;ratioP1;P1;durP2;ratioP2;P2;SDS_P1;SDS_P2;PMS_P1;PMS_P2;Temp;Humidity;BMP_temperature;BMP_pressure;BME280_temperature;BME280_humidity;BME280_pressure;Samples;Min_cycle;Max_cycle;Signal;HPM_P1;HPM_P2
2022/11/23 00:00:29;;;;;;;47.15;15.38;;;;;;;6.80;100.00;99464.44;5055599;28;20032;-47
2022/11/23 00:02:58;;;;;;;46.17;16.58;;;;;;;6.82;100.00;99470.47;5056063;28;20036;-46
2022/11/23 00:05:25;;;;;;;51.50;16.05;;;;;;;6.82;100.00;99473.88;5056269;28;20067;-47
2022/11/23 00:07:50;;;;;;;49.85;14.82;;;;;;;6.84;100.00;99474.78;5055514;28;20422;-46
2022/11/23 00:10:16;;;;;;;54.17;15.13;;;;;;;6.83;100.00;99470.50;5056316;28;20108;-46
2022/11/23 00:12:42;;;;;;;44.85;15.65;;;;;;;6.83;100.00;99469.59;5055923;28;20025;-48
2022/11/23 00:15:08;;;;;;;49.17;16.67;;;;;;;6.84;100.00;99476.47;5055342;28;20029;-47
2022/11/23 00:17:33;;;;;;;92.85;40.00;;;;;;;6.84;100.00;99474.78;5055813;28;20025;-46
2022/11/23 00:19:59;;;;;;;48.13;15.75;;;;;;;6.83;100.00;99482.41;5055942;28;20017;-47
2022/11/23 00:22:24;;;;;;;46.75;14.82;;;;;;;6.84;100.00;99485.03;5055098;28;20380;-46
2022/11/23 00:24:50;;;;;;;45.67;16.90;;;;;;;6.84;100.00;99487.59;5055589;28;20028;-47
2022/11/23 00:27:15;;;;;;;44.97;12.98;;;;;;;6.84;100.00;99479.91;5055734;28;20021;-47
2022/11/23 00:29:40;;;;;;;40.50;12.57;;;;;;;6.84;100.00;99481.59;5054824;28;20021;-46
2022/11/23 00:32:05;;;;;;;42.28;16.63;;;;;;;6.86;100.00;99485.91;5055714;28;20020;-48
2022/11/23 00:34:31;;;;;;;50.03;13.70;;;;;;;6.86;100.00;99485.06;5055442;28;20033;-43
2022/11/23 00:36:56;;;;;;;44.63;13.82;;;;;;;6.86;100.00;99488.47;5055174;28;20055;-47
2022/11/23 00:39:21;;;;;;;55.88;17.10;;;;;;;6.87;100.00;99487.66;5055801;28;20498;-47
2022/11/23 00:41:47;;;;;;;43.20;15.60;;;;;;;6.86;100.00;99493.59;5054908;28;20540;-47
2022/11/23 00:44:12;;;;;;;41.55;12.05;;;;;;;6.88;100.00;99499.63;5055106;28;20021;-48
2022/11/23 00:46:37;;;;;;;55.03;25.58;;;;;;;6.89;100.00;99500.47;5053778;28;20037;-47
2022/11/23 00:49:03;;;;;;;47.92;11.65;;;;;;;6.88;100.00;99507.31;5055425;28;20032;-47
2022/11/23 00:51:31;;;;;;;46.78;14.52;;;;;;;6.91;100.00;99503.97;5054784;28;20052;-47
2022/11/23 00:53:58;;;;;;;62.85;25.13;;;;;;;6.92;100.00;99498.88;5055546;28;20036;-46
2022/11/23 00:56:24;;;;;;;74.93;28.08;;;;;;;6.93;100.00;99502.28;5054788;28;20085;-45
2022/11/23 00:58:54;;;;;;;41.97;11.43;;;;;;;6.94;100.00;99503.16;5054847;28;20137;-47
2022/11/23 01:01:22;;;;;;;32.45;9.25;;;;;;;6.95;100.00;99500.63;5055200;28;20056;-46
2022/11/23 01:03:51;;;;;;;65.40;27.92;;;;;;;6.94;100.00;99508.28;5054120;28;20017;-46
2022/11/23 01:06:23;;;;;;;62.47;19.35;;;;;;;6.95;100.00;99505.75;5055079;28;20115;-47
2022/11/23 01:08:53;;;;;;;41.92;12.85;;;;;;;6.92;100.00;99506.53;5054658;28;20476;-46
2022/11/23 01:11:18;;;;;;;63.05;20.73;;;;;;;6.94;100.00;99503.16;5054469;28;20094;-46
2022/11/23 01:13:44;;;;;;;127.97;58.17;;;;;;;6.91;100.00;99507.38;5054678;28;20523;-44
2022/11/23 01:16:13;;;;;;;41.13;11.90;;;;;;;6.90;100.00;99512.47;5054926;28;20029;-46
2022/11/23 01:18:39;;;;;;;49.65;13.90;;;;;;;6.89;100.00;99500.47;5053658;28;20063;-46
2022/11/23 01:21:04;;;;;;;42.90;12.70;;;;;;;6.89;100.00;99511.63;5055128;28;20055;-46
2022/11/23 01:23:30;;;;;;;43.72;8.80;;;;;;;6.89;100.00;99501.38;5054829;28;20029;-45
2022/11/23 01:25:55;;;;;;;41.05;12.10;;;;;;;6.90;100.00;99512.47;5054060;28;20028;-45
2022/11/23 01:28:20;;;;;;;43.03;18.67;;;;;;;6.90;100.00;99518.44;5054694;28;20048;-45
2022/11/23 01:30:46;;;;;;;48.28;16.33;;;;;;;6.91;100.00;99515.06;5054205;28;20025;-44
2022/11/23 01:33:11;;;;;;;42.78;15.05;;;;;;;6.90;100.00;99521.00;5053934;28;20023;-46
2022/11/23 01:35:36;;;;;;;43.13;10.73;;;;;;;6.88;100.00;99520.13;5054133;28;20512;-47
2022/11/23 01:38:02;;;;;;;58.88;23.23;;;;;;;6.87;100.00;99518.38;5054468;28;20036;-47
2022/11/23 01:40:27;;;;;;;48.30;15.05;;;;;;;6.88;100.00;99525.25;5053990;28;20401;-46
2022/11/23 01:42:57;;;;;;;39.65;9.77;;;;;;;6.88;100.00;99529.47;5054200;28;20028;-46
2022/11/23 01:45:34;;;;;;;35.22;12.13;;;;;;;6.90;100.00;99536.38;5054225;28;20033;-45
2022/11/23 01:48:03;;;;;;;44.58;11.13;;;;;;;6.88;100.00;99532.94;5054343;28;20090;-46
2022/11/23 01:50:29;;;;;;;38.45;8.75;;;;;;;6.92;100.00;99533.88;5054468;28;20094;-47
2022/11/23 01:52:56;;;;;;;40.30;8.18;;;;;;;6.92;100.00;99531.31;5053245;28;20420;-46
2022/11/23 01:55:21;;;;;;;42.88;8.10;;;;;;;6.93;100.00;99527.88;5054215;28;20464;-46
2022/11/23 01:57:47;;;;;;;51.33;18.48;;;;;;;6.92;100.00;99531.31;5053687;28;20094;-46
2022/11/23 02:00:12;;;;;;;42.65;13.32;;;;;;;6.92;100.00;99532.16;5053145;28;20045;-46
2022/11/23 02:02:43;;;;;;;34.10;8.10;;;;;;;6.96;100.00;99542.47;5053879;28;20464;-47
2022/11/23 02:05:09;;;;;;;32.85;9.80;;;;;;;6.92;100.00;99542.41;5054074;28;20037;-46
2022/11/23 02:07:36;;;;;;;38.00;16.45;;;;;;;6.94;100.00;99547.56;5052977;28;20025;-47
2022/11/23 02:10:01;;;;;;;33.63;8.13;;;;;;;6.97;100.00;99544.19;5054075;28;20021;-45
2022/11/23 02:12:26;;;;;;;36.50;7.38;;;;;;;6.99;100.00;99547.69;5053810;28;20020;-46
2022/11/23 02:14:51;;;;;;;52.85;11.93;;;;;;;6.99;100.00;99552.81;5052784;28;20028;-47
2022/11/23 02:17:17;;;;;;;40.35;10.27;;;;;;;7.00;100.00;99546.84;5053723;28;20020;-47
2022/11/23 02:19:49;;;;;;;45.13;12.52;;;;;;;7.03;100.00;99559.72;5053312;28;20029;-47
2022/11/23 02:22:25;;;;;;;33.53;9.50;;;;;;;7.05;100.00;99548.69;5053022;28;20536;-47
2022/11/23 02:24:53;;;;;;;33.85;7.43;;;;;;;7.10;100.00;99553.88;5053135;28;20059;-47
2022/11/23 02:27:20;;;;;;;38.03;7.65;;;;;;;7.09;100.00;99545.34;5053265;28;20123;-46
2022/11/23 02:29:46;;;;;;;34.80;7.28;;;;;;;7.11;100.00;99558.19;5052822;28;20025;-46
2022/11/23 02:32:18;;;;;;;35.10;7.97;;;;;;;7.09;100.00;99557.31;5053975;28;20067;-48
2022/11/23 02:34:43;;;;;;;50.15;9.75;;;;;;;7.11;100.00;99552.22;5052798;28;20411;-47
2022/11/23 02:37:09;;;;;;;41.00;9.48;;;;;;;7.13;100.00;99556.53;5053088;28;20476;-45
2022/11/23 02:39:41;;;;;;;34.72;8.25;;;;;;;7.12;100.00;99562.50;5052935;28;20020;-45
2022/11/23 02:42:06;;;;;;;32.35;7.07;;;;;;;7.15;100.00;99562.53;5052534;28;20029;-47
2022/11/23 02:44:48;;;;;;;34.85;7.00;;;;;;;7.15;100.00;99565.09;5052917;28;20372;-45
2022/11/23 02:47:14;;;;;;;30.98;6.53;;;;;;;7.14;100.00;99558.28;5053205;28;20507;-47
2022/11/23 02:49:40;;;;;;;31.95;6.70;;;;;;;7.15;100.00;99559.13;5052006;28;20116;-46
2022/11/23 02:52:07;;;;;;;36.58;7.10;;;;;;;7.14;100.00;99563.41;5053160;28;20021;-47
2022/11/23 02:54:32;;;;;;;43.25;7.47;;;;;;;7.13;100.00;99566.78;5052650;28;20033;-47
2022/11/23 02:56:58;;;;;;;37.42;8.05;;;;;;;7.15;100.00;99565.09;5052419;28;20029;-48
2022/11/23 02:59:23;;;;;;;45.17;7.15;;;;;;;7.14;100.00;99560.84;5053012;28;20037;-47
2022/11/23 03:01:48;;;;;;;32.25;7.10;;;;;;;7.13;100.00;99556.53;5052640;28;20067;-47
2022/11/23 03:04:13;;;;;;;35.95;7.20;;;;;;;7.11;100.00;99563.31;5052505;28;20503;-47
2022/11/23 03:06:39;;;;;;;31.77;7.60;;;;;;;7.09;100.00;99560.72;5052505;28;20384;-47
2022/11/23 03:09:04;;;;;;;37.20;7.25;;;;;;;7.07;100.00;99561.50;5052109;28;20157;-45
2022/11/23 03:11:30;;;;;;;37.88;7.70;;;;;;;7.07;100.00;99566.63;5052219;28;20023;-43
2022/11/23 03:13:56;;;;;;;36.70;7.47;;;;;;;7.06;100.00;99565.78;5052795;28;20481;-47
2022/11/23 03:16:21;;;;;;;41.40;8.45;;;;;;;7.03;100.00;99569.97;5052720;28;20472;-46
2022/11/23 03:18:46;;;;;;;32.22;7.65;;;;;;;7.02;100.00;99564.00;5051988;28;20388;-45
2022/11/23 03:21:12;;;;;;;49.63;8.52;;;;;;;7.00;100.00;99562.22;5052808;28;20033;-47
2022/11/23 03:23:37;;;;;;;31.92;7.30;;;;;;;6.98;100.00;99566.44;5052075;28;20059;-46
2022/11/23 03:26:03;;;;;;;43.97;8.35;;;;;;;6.95;100.00;99572.34;5052009;28;20395;-46
2022/11/23 03:28:29;;;;;;;37.78;7.78;;;;;;;6.92;100.00;99574.84;5052884;28;20021;-44
2022/11/23 03:30:54;;;;;;;45.80;8.55;;;;;;;6.92;100.00;99575.69;5052158;28;20037;-47
2022/11/23 03:33:19;;;;;;;44.53;8.75;;;;;;;6.92;100.00;99565.47;5052331;28;20039;-47
2022/11/23 03:35:45;;;;;;;40.42;7.28;;;;;;;6.91;100.00;99571.41;5052364;28;20033;-46
2022/11/23 03:38:11;;;;;;;42.22;7.95;;;;;;;6.89;100.00;99567.97;5051728;28;20031;-44
2022/11/23 03:40:36;;;;;;;50.38;8.25;;;;;;;6.88;100.00;99571.34;5052482;28;20108;-46
2022/11/23 03:43:02;;;;;;;46.92;7.93;;;;;;;6.86;100.00;99573.00;5052687;28;20021;-47
2022/11/23 03:45:27;;;;;;;38.67;7.75;;;;;;;6.85;100.00;99563.56;5051792;28;20031;-47
2022/11/23 03:47:52;;;;;;;47.90;7.78;;;;;;;6.87;100.00;99569.59;5052230;28;20029;-45
2022/11/23 03:50:18;;;;;;;33.47;6.47;;;;;;;6.88;100.00;99567.91;5052466;28;20029;-46
2022/11/23 03:52:43;;;;;;;45.92;7.28;;;;;;;6.86;100.00;99573.00;5051099;28;20021;-48
2022/11/23 03:55:09;;;;;;;41.45;6.70;;;;;;;6.84;100.00;99572.09;5052663;28;20035;-46
2022/11/23 03:57:34;;;;;;;35.33;6.18;;;;;;;6.84;100.00;99569.53;5052353;28;20048;-46
2022/11/23 03:59:59;;;;;;;49.13;8.38;;;;;;;6.87;100.00;99573.88;5051450;28;20041;-47
2022/11/23 04:02:25;;;;;;;37.28;7.00;;;;;;;6.86;100.00;99572.13;5052292;28;20032;-44
2022/11/23 04:04:50;;;;;;;43.83;7.35;;;;;;;6.86;100.00;99567.88;5052003;28;20111;-46
2022/11/23 04:07:15;;;;;;;37.95;7.15;;;;;;;6.86;100.00;99573.00;5051494;28;20033;-47
2022/11/23 04:09:40;;;;;;;30.45;7.05;;;;;;;6.87;100.00;99579.00;5051924;28;20025;-46
2022/11/23 04:12:08;;;;;;;37.17;7.55;;;;;;;6.86;100.00;99585.78;5052250;28;20033;-47
2022/11/23 04:14:33;;;;;;;36.55;8.32;;;;;;;6.87;100.00;99579.84;5051442;28;20083;-44
2022/11/23 04:17:00;;;;;;;40.03;7.45;;;;;;;6.89;100.00;99577.31;5052165;28;20029;-46
2022/11/23 04:19:26;;;;;;;36.40;7.07;;;;;;;6.89;100.00;99580.75;5052092;28;20029;-47
2022/11/23 04:21:51;;;;;;;47.58;8.02;;;;;;;6.90;100.00;99584.19;5053680;28;20294;-46
2022/11/23 04:24:16;;;;;;;36.08;7.25;;;;;;;6.91;100.00;99579.09;5056122;28;20067;-46
2022/11/23 04:26:41;;;;;;;39.92;7.30;;;;;;;6.95;100.00;99572.34;5055185;28;20040;-46
2022/11/23 04:29:07;;;;;;;42.28;7.53;;;;;;;6.95;100.00;99571.50;5055420;28;20048;-47
2022/11/23 04:31:32;;;;;;;41.40;6.78;;;;;;;6.94;100.00;99570.59;5055518;28;20032;-47
2022/11/23 04:33:57;;;;;;;39.03;7.15;;;;;;;6.96;100.00;99578.31;5055586;28;20060;-44
2022/11/23 04:36:23;;;;;;;39.08;7.47;;;;;;;6.95;100.00;99574.06;5055560;28;20453;-45
2022/11/23 04:38:49;;;;;;;32.65;6.63;;;;;;;6.95;100.00;99571.50;5055272;28;20028;-47
2022/11/23 04:41:14;;;;;;;44.70;7.72;;;;;;;6.96;100.00;99568.97;5055469;28;20017;-46
2022/11/23 04:43:39;;;;;;;33.15;7.40;;;;;;;6.94;100.00;99574.88;5054987;28;20033;-45
2022/11/23 04:46:05;;;;;;;43.83;7.82;;;;;;;6.95;100.00;99576.63;5055462;28;20388;-45
2022/11/23 04:48:30;;;;;;;38.60;7.82;;;;;;;6.96;100.00;99573.19;5054594;28;20059;-43
2022/11/23 04:50:56;;;;;;;41.85;7.18;;;;;;;6.96;100.00;99579.22;5055196;28;20021;-46
2022/11/23 04:53:22;;;;;;;43.55;8.20;;;;;;;6.94;100.00;99583.41;5055462;28;20047;-47
2022/11/23 04:55:47;;;;;;;47.85;7.63;;;;;;;6.91;100.00;99579.09;5054450;28;20111;-45
2022/11/23 04:58:12;;;;;;;34.17;7.15;;;;;;;6.90;100.00;99579.91;5055154;28;20041;-47
2022/11/23 05:00:38;;;;;;;45.88;8.32;;;;;;;6.89;100.00;99578.22;5055189;28;20527;-46
2022/11/23 05:03:03;;;;;;;45.65;7.60;;;;;;;6.90;100.00;99579.91;5054457;28;20035;-47
2022/11/23 05:05:29;;;;;;;41.38;6.63;;;;;;;6.92;100.00;99570.59;5055049;28;20032;-46
2022/11/23 05:07:55;;;;;;;46.88;7.78;;;;;;;6.90;100.00;99569.66;5054633;28;20037;-45
2022/11/23 05:10:20;;;;;;;40.45;7.50;;;;;;;6.87;100.00;99577.28;5054256;28;20028;-47
2022/11/23 05:12:46;;;;;;;34.78;6.75;;;;;;;6.83;100.00;99578.06;5054885;28;20017;-47
2022/11/23 05:15:13;;;;;;;41.17;6.55;;;;;;;6.84;100.00;99573.78;5054993;28;20033;-46
2022/11/23 05:17:38;;;;;;;40.70;6.97;;;;;;;6.79;100.00;99567.69;5054255;28;20029;-47
2022/11/23 05:20:04;;;;;;;45.22;6.80;;;;;;;6.71;100.00;99570.06;5054777;28;20099;-43
2022/11/23 05:22:29;;;;;;;46.25;7.25;;;;;;;6.66;100.00;99569.06;5054545;28;20075;-43
2022/11/23 05:24:55;;;;;;;48.55;8.35;;;;;;;6.59;100.00;99570.63;5053934;28;20053;-47
2022/11/23 05:27:20;;;;;;;46.28;7.20;;;;;;;6.58;100.00;99572.34;5054647;28;20021;-45
2022/11/23 05:29:45;;;;;;;34.92;7.07;;;;;;;6.58;100.00;99567.22;5054341;28;20043;-47
2022/11/23 05:32:11;;;;;;;40.17;7.70;;;;;;;6.59;100.00;99575.75;5053532;28;20540;-47
2022/11/23 05:34:36;;;;;;;51.40;8.00;;;;;;;6.58;100.00;99567.22;5054260;28;20025;-46
2022/11/23 05:37:01;;;;;;;54.55;8.23;;;;;;;6.57;100.00;99579.94;5054279;28;20036;-47
2022/11/23 05:39:26;;;;;;;49.83;8.52;;;;;;;6.57;100.00;99574.81;5054079;28;20042;-47
2022/11/23 05:41:52;;;;;;;41.13;6.80;;;;;;;6.61;100.00;99575.78;5054074;28;20025;-46
2022/11/23 05:44:17;;;;;;;51.83;8.40;;;;;;;6.63;100.00;99571.56;5054369;28;20029;-45
2022/11/23 05:46:43;;;;;;;52.60;9.10;;;;;;;6.58;100.00;99574.88;5053410;28;20045;-46
2022/11/23 05:49:09;;;;;;;46.00;8.88;;;;;;;6.58;100.00;99574.00;5054366;28;20381;-45
2022/11/23 05:51:34;;;;;;;43.65;8.55;;;;;;;6.61;100.00;99586.00;5053612;28;20033;-44
2022/11/23 05:54:00;;;;;;;56.65;8.90;;;;;;;6.55;100.00;99582.47;5053907;28;20158;-48
2022/11/23 05:56:26;;;;;;;51.50;8.82;;;;;;;6.55;100.00;99577.34;5054395;28;20032;-48
2022/11/23 05:58:54;;;;;;;65.00;9.13;;;;;;;6.54;100.00;99574.75;5052821;28;20503;-43
2022/11/23 06:01:19;;;;;;;52.00;8.57;;;;;;;6.52;100.00;99574.72;5054193;28;20039;-44
2022/11/23 06:03:44;;;;;;;44.83;9.02;;;;;;;6.49;100.00;99576.34;5053814;28;20021;-44
2022/11/23 06:06:10;;;;;;;57.97;10.35;;;;;;;6.48;100.00;99580.59;5053097;28;20114;-47
2022/11/23 06:08:35;;;;;;;59.53;10.02;;;;;;;6.47;100.00;99576.31;5053740;28;20033;-46
2022/11/23 06:11:01;;;;;;;61.83;12.27;;;;;;;6.42;100.00;99577.88;5054077;28;20024;-47
2022/11/23 06:13:26;;;;;;;63.65;11.52;;;;;;;6.45;100.00;99575.38;5053143;28;20384;-45
2022/11/23 06:15:52;;;;;;;52.63;10.60;;;;;;;6.44;100.00;99586.44;5053708;28;20110;-46
2022/11/23 06:18:17;;;;;;;49.30;13.50;;;;;;;6.45;100.00;99577.94;5053770;28;20024;-47
2022/11/23 06:20:42;;;;;;;62.40;9.98;;;;;;;6.43;100.00;99585.59;5052881;28;20494;-46
2022/11/23 06:23:07;;;;;;;53.35;9.20;;;;;;;6.43;100.00;99588.16;5053928;28;20035;-47
2022/11/23 06:25:33;;;;;;;60.28;9.32;;;;;;;6.44;100.00;99581.31;5052976;28;20122;-46
2022/11/23 06:27:59;;;;;;;52.63;9.57;;;;;;;6.45;100.00;99588.19;5053185;28;20396;-47
2022/11/23 06:30:26;;;;;;;55.42;9.40;;;;;;;6.46;100.00;99587.38;5053669;28;20025;-46
2022/11/23 06:32:52;;;;;;;62.00;9.00;;;;;;;6.43;100.00;99585.59;5052974;28;20444;-48
2022/11/23 06:35:17;;;;;;;61.42;10.00;;;;;;;6.42;100.00;99590.69;5052936;28;20503;-45
2022/11/23 06:37:43;;;;;;;46.08;8.30;;;;;;;6.39;100.00;99586.34;5053360;28;20460;-46
2022/11/23 06:40:10;;;;;;;52.30;8.60;;;;;;;6.39;100.00;99593.13;5053295;28;20028;-47
2022/11/23 06:42:35;;;;;;;60.85;9.55;;;;;;;6.36;100.00;99588.81;5052492;28;20025;-46
2022/11/23 06:45:01;;;;;;;55.92;8.73;;;;;;;6.38;100.00;99588.88;5053204;28;20024;-44
2022/11/23 06:47:27;;;;;;;46.63;8.55;;;;;;;6.38;100.00;99599.97;5053110;28;20091;-47
2022/11/23 06:49:52;;;;;;;53.88;8.55;;;;;;;6.36;100.00;99590.50;5052254;28;20025;-45
2022/11/23 06:52:18;;;;;;;54.20;8.80;;;;;;;6.36;100.00;99593.06;5053338;28;20618;-43
2022/11/23 06:54:43;;;;;;;66.78;9.05;;;;;;;6.34;100.00;99602.38;5052654;28;20358;-47
2022/11/23 06:57:09;;;;;;;51.28;9.32;;;;;;;6.32;100.00;99593.81;5052372;28;20127;-45
2022/11/23 06:59:34;;;;;;;42.65;7.50;;;;;;;6.36;100.00;99605.88;5052511;28;20477;-47
2022/11/23 07:01:59;;;;;;;45.40;8.20;;;;;;;6.34;100.00;99612.63;5052493;28;20029;-47
2022/11/23 07:04:25;;;;;;;54.15;8.63;;;;;;;6.37;100.00;99612.72;5052471;28;20017;-46
2022/11/23 07:06:50;;;;;;;33.92;7.05;;;;;;;6.35;100.00;99620.38;5052700;28;20036;-46
2022/11/23 07:09:15;;;;;;;48.92;8.57;;;;;;;6.34;100.00;99622.84;5052162;28;20133;-48
2022/11/23 07:11:41;;;;;;;49.92;8.68;;;;;;;6.35;100.00;99627.16;5052429;28;20025;-46
2022/11/23 07:14:07;;;;;;;60.70;10.25;;;;;;;6.30;100.00;99623.59;5052961;28;20021;-46
2022/11/23 07:16:32;;;;;;;55.17;8.27;;;;;;;6.30;100.00;99631.28;5051672;28;20079;-47
2022/11/23 07:18:58;;;;;;;55.83;8.60;;;;;;;6.30;100.00;99637.28;5052771;28;20029;-46
2022/11/23 07:21:23;;;;;;;40.65;7.28;;;;;;;6.29;100.00;99634.66;5052702;28;20025;-46
2022/11/23 07:23:48;;;;;;;47.95;7.10;;;;;;;6.29;100.00;99640.66;5051971;28;20056;-45
2022/11/23 07:26:14;;;;;;;46.85;6.95;;;;;;;6.29;100.00;99650.91;5052718;28;20036;-45
2022/11/23 07:28:39;;;;;;;42.75;6.75;;;;;;;6.32;100.00;99650.13;5052172;28;20033;-46
2022/11/23 07:31:04;;;;;;;45.20;6.97;;;;;;;6.34;100.00;99648.44;5052065;28;20417;-46
2022/11/23 07:33:30;;;;;;;49.00;7.00;;;;;;;6.36;100.00;99641.69;5052493;28;20461;-46
2022/11/23 07:35:55;;;;;;;46.88;7.45;;;;;;;6.30;100.00;99646.63;5052290;28;20354;-46
2022/11/23 07:38:20;;;;;;;50.05;6.78;;;;;;;6.30;100.00;99649.19;5052225;28;20028;-44
2022/11/23 07:40:48;;;;;;;55.45;7.43;;;;;;;6.26;100.00;99659.34;5052252;28;20032;-45
2022/11/23 07:43:13;;;;;;;;;;;;;;;6.30;100.00;99656.88;5052602;28;20465;-45
2022/11/23 07:45:39;;;;;;;42.47;6.33;;;;;;;6.22;100.00;99660.09;5051638;28;19917;-46
2022/11/23 07:48:08;;;;;;;49.55;7.25;;;;;;;6.18;100.00;99663.38;5052379;28;20279;-47
2022/11/23 07:50:35;;;;;;;46.28;6.55;;;;;;;6.17;100.00;99665.88;5052085;28;20029;-44
2022/11/23 07:53:02;;;;;;;41.25;7.95;;;;;;;6.14;100.00;99671.78;5052097;28;20150;-47
2022/11/23 07:55:27;;;;;;;57.90;8.70;;;;;;;6.13;100.00;99680.28;5052894;28;20029;-47
2022/11/23 07:57:53;;;;;;;47.88;7.57;;;;;;;6.09;100.00;99676.78;5055970;28;20025;-46
2022/11/23 08:00:22;;;;;;;49.42;7.28;;;;;;;6.10;100.00;99681.06;5055548;28;20055;-47
2022/11/23 08:02:48;;;;;;;43.67;7.10;;;;;;;6.10;100.00;99677.66;5056162;28;20099;-48
2022/11/23 08:05:14;;;;;;;39.25;6.95;;;;;;;6.07;100.00;99673.31;5056147;28;20352;-48
2022/11/23 08:07:39;;;;;;;45.90;7.15;;;;;;;6.09;100.00;99683.59;5055479;28;20104;-46
2022/11/23 08:10:05;;;;;;;43.10;6.93;;;;;;;6.09;100.00;99686.13;5056402;28;20101;-46
2022/11/23 08:12:30;;;;;;;49.22;7.32;;;;;;;6.07;100.00;99680.13;5055321;28;20056;-46
2022/11/23 08:14:55;;;;;;;42.63;7.18;;;;;;;6.07;100.00;99680.97;5056007;28;20082;-47
2022/11/23 08:17:21;;;;;;;47.33;7.68;;;;;;;6.06;100.00;99686.06;5056022;28;20419;-45
2022/11/23 08:19:46;;;;;;;39.25;6.53;;;;;;;6.09;100.00;99674.25;5054812;28;20036;-43
2022/11/23 08:22:11;;;;;;;40.97;7.00;;;;;;;6.10;100.00;99677.66;5056134;28;20530;-46
2022/11/23 08:24:37;;;;;;;45.80;7.30;;;;;;;6.18;100.00;99688.97;5055567;28;20025;-46
2022/11/23 08:27:02;;;;;;;44.05;6.53;;;;;;;6.21;100.00;99691.63;5055207;28;20076;-47
2022/11/23 08:29:28;;;;;;;44.25;7.32;;;;;;;6.22;100.00;99685.69;5055823;28;20029;-47
2022/11/23 08:31:53;;;;;;;60.03;7.93;;;;;;;6.21;100.00;99680.50;5055311;28;20063;-47
2022/11/23 08:34:19;;;;;;;39.55;6.80;;;;;;;6.21;100.00;99675.38;5055122;28;20061;-46
2022/11/23 08:36:44;;;;;;;40.08;7.03;;;;;;;6.24;100.00;99688.28;5055339;28;20075;-46
2022/11/23 08:39:10;;;;;;;56.05;8.82;;;;;;;6.26;100.00;99687.50;5055479;28;20578;-46
2022/11/23 08:41:38;;;;;;;42.78;6.72;;;;;;;6.27;100.00;99690.91;5054752;28;20083;-46
2022/11/23 08:44:04;;;;;;;44.85;7.55;;;;;;;6.28;100.00;99694.34;5055429;28;20353;-47
2022/11/23 08:46:29;;;;;;;43.28;7.20;;;;;;;6.31;100.00;99700.41;5055152;28;20078;-47
2022/11/23 08:48:54;;;;;;;40.10;6.25;;;;;;;6.32;100.00;99697.03;5055207;28;20033;-47
2022/11/23 08:51:21;;;;;;;40.90;7.00;;;;;;;6.36;100.00;99687.75;5055535;28;20384;-46
2022/11/23 08:53:48;;;;;;;42.23;7.03;;;;;;;6.37;100.00;99694.63;5055051;28;20023;-47
2022/11/23 08:56:13;;;;;;;54.05;7.32;;;;;;;6.41;100.00;99691.31;5054837;28;20036;-46
2022/11/23 08:58:38;;;;;;;47.97;7.57;;;;;;;6.44;100.00;99686.25;5054861;28;20164;-47
2022/11/23 09:01:09;;;;;;;35.97;6.20;;;;;;;6.48;100.00;99687.22;5054993;28;20029;-45
2022/11/23 09:03:34;;;;;;;47.42;8.32;;;;;;;6.53;100.00;99681.41;5054554;28;20028;-45
2022/11/23 09:06:00;;;;;;;45.25;7.70;;;;;;;6.56;99.20;99681.50;5055179;28;20026;-46
2022/11/23 09:08:25;;;;;;;37.15;6.43;;;;;;;6.57;99.29;99670.44;5053791;28;20052;-46
2022/11/23 09:10:50;;;;;;;39.90;6.40;;;;;;;6.61;98.69;99679.06;5054178;28;20025;-45
2022/11/23 09:13:16;;;;;;;35.38;6.47;;;;;;;6.63;98.52;99681.66;5054922;28;20063;-47
2022/11/23 09:15:41;;;;;;;42.97;8.40;;;;;;;6.63;99.33;99687.63;5053743;28;20472;-47
2022/11/23 09:18:06;;;;;;;37.83;7.13;;;;;;;6.65;98.55;99680.88;5055230;28;20031;-47
2022/11/23 09:20:31;;;;;;;46.00;6.53;;;;;;;6.66;98.21;99679.16;5054747;28;20055;-44
2022/11/23 09:22:57;;;;;;;41.03;6.72;;;;;;;6.69;97.75;99680.13;5054288;28;20042;-46
2022/11/23 09:25:22;;;;;;;36.05;7.10;;;;;;;6.73;97.21;99663.16;5054698;28;20468;-46
2022/11/23 09:27:55;;;;;;;39.55;6.90;;;;;;;6.75;97.03;99671.72;5054107;28;20029;-44
2022/11/23 09:30:20;;;;;;;42.53;7.55;;;;;;;6.78;97.84;99666.69;5054035;28;20029;-47
2022/11/23 09:32:45;;;;;;;41.55;7.43;;;;;;;6.88;97.27;99668.66;5054350;28;20044;-46
2022/11/23 09:35:10;;;;;;;44.22;7.55;;;;;;;7.00;96.77;99668.09;5054538;28;20491;-47
2022/11/23 09:37:36;;;;;;;34.03;6.93;;;;;;;7.19;96.17;99668.53;5053771;28;20025;-48
2022/11/23 09:40:01;;;;;;;29.08;6.55;;;;;;;7.29;93.30;99655.13;5054573;28;20097;-47
2022/11/23 09:42:54;;;;;;;42.95;6.82;;;;;;;7.39;92.69;99645.97;5054283;28;20028;-46
2022/11/23 09:45:38;;;;;;;40.47;7.28;;;;;;;7.52;93.25;99647.97;5053958;28;20036;-47
2022/11/23 09:48:13;;;;;;;37.85;6.20;;;;;;;7.67;90.40;99646.56;5054331;28;20076;-47
2022/11/23 09:50:44;;;;;;;39.10;5.82;;;;;;;7.66;90.95;99645.72;5053823;28;20082;-45
2022/11/23 09:53:14;;;;;;;34.03;5.95;;;;;;;7.70;89.82;99638.97;5053680;28;20032;-48
2022/11/23 09:55:43;;;;;;;38.45;6.65;;;;;;;7.75;88.83;99645.06;5054072;28;20029;-47
2022/11/23 09:58:13;;;;;;;40.80;7.03;;;;;;;7.73;88.27;99636.44;5053351;28;20025;-46
2022/11/23 10:00:47;;;;;;;38.78;6.35;;;;;;;7.84;89.06;99619.59;5053848;28;20029;-46
2022/11/23 10:03:14;;;;;;;31.55;5.72;;;;;;;7.97;88.40;99614.72;5053854;28;20032;-47
2022/11/23 10:05:46;;;;;;;35.25;6.03;;;;;;;7.96;86.99;99618.13;5052957;28;20400;-48
2022/11/23 10:08:30;;;;;;;43.40;6.07;;;;;;;8.00;87.50;99615.63;5054198;28;20021;-44
2022/11/23 10:10:58;;;;;;;29.35;5.57;;;;;;;8.10;87.22;99616.69;5053796;28;20029;-46
2022/11/23 10:13:43;;;;;;;35.97;5.47;;;;;;;8.24;87.54;99614.41;5053356;28;20031;-48
2022/11/23 10:16:53;;;;;;;31.13;5.70;;;;;;;8.32;86.87;99610.25;5053713;28;20052;-47
2022/11/23 10:19:56;;;;;;;37.13;4.88;;;;;;;8.32;86.49;99605.13;5047154;28;20040;-47
2022/11/23 10:22:33;;;;;;;28.13;5.03;;;;;;;8.35;85.27;99601.75;5053610;28;20038;-48
2022/11/23 10:25:03;;;;;;;36.15;6.38;;;;;;;8.30;84.98;99600.81;5053706;28;20033;-45
2022/11/23 10:27:28;;;;;;;29.83;6.03;;;;;;;8.53;85.70;99603.81;5052991;28;20372;-48
2022/11/23 10:29:55;;;;;;;30.90;5.65;;;;;;;8.59;84.54;99606.50;5053143;28;20021;-47
2022/11/23 10:32:37;;;;;;;25.90;5.18;;;;;;;8.77;85.19;99598.25;5053259;28;20032;-48
2022/11/23 10:35:18;;;;;;;33.45;5.88;;;;;;;8.72;83.23;99599.88;5052862;28;20033;-45
2022/11/23 10:37:43;;;;;;;28.52;5.13;;;;;;;8.80;82.75;99595.72;5053138;28;20361;-47
2022/11/23 10:40:22;;;;;;;27.08;5.07;;;;;;;8.85;81.86;99591.53;5051874;28;20527;-44
2022/11/23 10:42:55;;;;;;;30.35;5.80;;;;;;;8.98;81.99;99604.59;5053137;28;20469;-45
2022/11/23 10:45:28;;;;;;;36.53;5.68;;;;;;;9.00;81.12;99600.31;5052931;28;20033;-46
2022/11/23 10:47:58;;;;;;;32.83;4.88;;;;;;;9.13;81.20;99594.53;5052548;28;20054;-45
2022/11/23 10:50:39;;;;;;;25.23;4.22;;;;;;;9.17;79.94;99595.47;5053314;28;20036;-45
2022/11/23 10:53:05;;;;;;;29.75;4.88;;;;;;;9.18;80.22;99587.75;5052880;28;20384;-45
2022/11/23 10:55:47;;;;;;;30.97;5.10;;;;;;;9.25;80.34;99593.00;5052500;28;20021;-44
2022/11/23 10:58:30;;;;;;;25.92;5.30;;;;;;;9.49;79.33;99588.19;5053114;28;20279;-48
2022/11/23 11:01:23;;;;;;;32.20;5.50;;;;;;;9.35;80.89;99594.88;5052813;28;20052;-46
2022/11/23 11:03:50;;;;;;;27.58;5.03;;;;;;;9.21;80.38;99590.38;5050315;28;20048;-48
2022/11/23 11:06:24;;;;;;;28.15;4.53;;;;;;;9.26;81.12;99585.31;5052867;28;20031;-47
2022/11/23 11:08:57;;;;;;;33.30;5.20;;;;;;;9.30;81.19;99586.22;5052146;28;20028;-49
2022/11/23 11:11:25;;;;;;;28.45;5.03;;;;;;;9.37;80.90;99575.16;5052934;28;20029;-47
2022/11/23 11:14:00;;;;;;;31.73;5.10;;;;;;;9.46;79.45;99567.56;5052142;28;20514;-47
2022/11/23 11:16:34;;;;;;;31.50;5.45;;;;;;;9.52;79.07;99572.81;5052168;28;20044;-44
2022/11/23 11:19:20;;;;;;;22.10;4.18;;;;;;;9.59;78.30;99566.03;5053088;28;20028;-48
2022/11/23 11:21:46;;;;;;;25.80;4.30;;;;;;;9.70;78.23;99561.88;5052156;28;20482;-47
2022/11/23 11:24:31;;;;;;;27.92;4.82;;;;;;;9.68;78.19;99557.56;5052189;28;20049;-48